Flight Track Log - Related Links

Times and Time Zones

All times are in EDT time to prevent confusion due to time zone crossing. See the UAL51 flight status page for this flight to view local times or setup timezone preferences in your user account.

Time Position Orientation Groundspeed Altitude Reporting Facility
EDT Latitude Longitude Course Direction KTS MPH feet Rate Location/Type
Thu 05:41:32 AM 50.0370 8.5470 250° West 190 219 500  Level FlightAware ADS-B
Thu 05:42:02 AM 50.0290 8.5070 253° West 187 215 2,000 2,509 Climbing FlightAware ADS-B
Thu 05:42:27 AM 50.0300 8.4790 273° West 192 221 2,800 1,867 Climbing FlightAware ADS-B
Thu 05:42:47 AM 50.0320 8.4540 277° West 194 223 3,400 1,600 Climbing FlightAware ADS-B
Thu 05:43:12 AM 50.0280 8.4140 261° West 212 244 4,000 1,200 Climbing FlightAware ADS-B
Thu 05:43:37 AM 50.0230 8.3750 259° West 240 276 4,400 1,500 Climbing FlightAware ADS-B
Thu 05:43:52 AM 50.0200 8.3510 259° West 242 278 5,000 2,400 Climbing FlightAware ADS-B
Thu 05:44:22 AM 50.0150 8.2930 262° West 262 302 6,200 2,073 Climbing FlightAware ADS-B
Thu 05:44:47 AM 50.0230 8.2500 286° West 275 316 6,900 873 Climbing FlightAware ADS-B
Thu 05:45:17 AM 50.0390 8.1940 294° West 266 306 7,000 133 Climbing FlightAware ADS-B
Thu 05:45:32 AM 50.0480 8.1640 295° West 270 311 7,000  Level FlightAware ADS-B
Thu 05:45:57 AM 50.0550 8.1200 284° West 261 300 7,000  Level FlightAware ADS-B
Thu 05:46:27 AM 50.0580 8.0630 275° West 263 303 7,000 545 Level FlightAware ADS-B
Thu 05:46:52 AM 50.0610 8.0160 276° West 265 305 7,500 2,073 Climbing FlightAware ADS-B
Thu 05:47:22 AM 50.0630 7.9590 273° West 263 303 8,900 2,486 Climbing FlightAware ADS-B
Thu 05:48:02 AM 50.0700 7.8820 278° West 277 319 10,400 2,073 Climbing FlightAware ADS-B
Thu 05:48:17 AM 50.0770 7.8580 294° West 290 334 10,800 2,200 Climbing FlightAware ADS-B
Thu 05:48:32 AM 50.0950 7.8340 319° Northwest 299 344 11,500 1,964 Climbing FlightAware ADS-B
Thu 05:49:12 AM 50.1470 7.7990 337° Northwest 327 376 12,600 1,360 Climbing FlightAware ADS-B
Thu 05:49:47 AM 50.2000 7.7700 341° North 355 409 13,200 960 Climbing FlightAware ADS-B
Thu 05:50:27 AM 50.2650 7.7340 341° North 397 457 13,800 1,520 Climbing FlightAware ADS-B
Thu 05:51:02 AM 50.3270 7.6930 337° Northwest 402 463 15,100 2,160 Climbing FlightAware ADS-B
Thu 05:51:42 AM 50.3960 7.6460 337° Northwest 410 472 16,500 2,259 Climbing FlightAware ADS-B
Thu 05:52:27 AM 50.4780 7.5890 336° Northwest 425 489 18,300 2,047 Climbing FlightAware ADS-B
Thu 05:53:07 AM 50.5470 7.5400 336° Northwest 428 493 19,400 1,271 Climbing FlightAware ADS-B
Thu 05:53:52 AM 50.6250 7.4700 330° Northwest 450 518 20,100 1,200 Climbing FlightAware ADS-B
Thu 05:54:32 AM 50.7000 7.3910 326° Northwest 456 525 21,100 1,875 Climbing FlightAware ADS-B
Thu 05:55:12 AM 50.7720 7.3150 326° Northwest 462 532 22,600 2,541 Climbing FlightAware ADS-B
Thu 05:55:57 AM 50.8500 7.2360 327° Northwest 440 506 24,700 2,259 Climbing FlightAware ADS-B
Thu 05:56:37 AM 50.9180 7.1640 326° Northwest 442 509 25,800 1,050 Climbing FlightAware ADS-B
Thu 05:57:17 AM 50.9730 7.0720 314° West 442 509 26,100 1,129 Climbing FlightAware ADS-B
Thu 05:58:02 AM 51.0060 6.9390 292° West 432 497 27,400 2,047 Climbing FlightAware ADS-B
Thu 05:58:42 AM 51.0480 6.8400 304° West 434 499 29,000 1,950 Climbing FlightAware ADS-B
Thu 05:59:22 AM 51.1060 6.7390 312° West 410 472 30,000 750 Climbing FlightAware ADS-B
Thu 06:00:02 AM 51.1560 6.6530 313° West 412 474 30,000  Level FlightAware ADS-B
Thu 06:00:47 AM 51.2160 6.5490 313° West 423 487 30,000  Level FlightAware ADS-B
Thu 06:01:32 AM 51.2800 6.4400 313° West 429 494 30,000  Level FlightAware ADS-B
Thu 06:02:12 AM 51.3320 6.3500 313° West 432 497 30,000  Level FlightAware ADS-B
Thu 06:02:57 AM 51.3850 6.2350 306° West 423 487 30,000  Level FlightAware ADS-B
Thu 06:03:32 AM 51.4210 6.1380 301° West 427 491 30,000  Level FlightAware ADS-B
Thu 06:04:22 AM 51.4730 6.0060 302° West 436 502 30,000  Level FlightAware ADS-B
Thu 06:05:02 AM 51.5220 5.9020 307° West 442 509 30,000  Level FlightAware ADS-B
Thu 06:05:42 AM 51.5710 5.8080 310° West 446 513 30,000  Level FlightAware ADS-B
Thu 06:06:27 AM 51.6330 5.6910 311° West 447 514 30,000  Level FlightAware ADS-B
Thu 06:07:07 AM 51.6900 5.5860 311° West 448 516 30,000  Level FlightAware ADS-B
Thu 06:07:52 AM 51.7490 5.4730 310° West 446 513 30,000  Level FlightAware ADS-B
Thu 06:08:32 AM 51.8030 5.3720 311° West 445 512 30,000  Level FlightAware ADS-B
Thu 06:09:17 AM 51.8610 5.2610 310° West 445 512 30,000  Level FlightAware ADS-B
Thu 06:09:57 AM 51.9170 5.1540 310° West 445 512 30,000 -1,600 Level FlightAware ADS-B
Thu 06:10:17 AM 51.9319 5.0953 310° West 468 539 28,400  Descending FlightAware UK
Thu 06:10:37 AM 51.9700 5.0520 310° West 450 518 30,000 143 Climbing FlightAware ADS-B
Thu 06:10:59 AM 51.9933 4.9922 310° West 478 550 28,500  Descending FlightAware UK
Thu 06:11:22 AM 52.0290 4.9380 310° West 455 524 30,000  Climbing FlightAware ADS-B
Thu 06:11:53 AM 52.0680 4.8534 310° West 480 552 28,500  Descending FlightAware UK
Thu 06:12:02 AM 52.0840 4.8330 310° West 455 524 30,000  Climbing FlightAware ADS-B
Thu 06:12:17 AM 52.1006 4.7907 310° West 478 550 28,500 -2,308 Descending FlightAware UK
Thu 06:12:41 AM 52.1316 4.7266 308° West 478 550 28,500 3,600 Level FlightAware UK
Thu 06:12:42 AM 52.1370 4.7290 308° West 452 520 30,000  Climbing FlightAware ADS-B
Thu 06:12:59 AM 52.1547 4.6786 308° West 476 548 28,500 -2,571 Descending FlightAware UK
Thu 06:13:17 AM 52.1796 4.6322 311° West 474 545 28,500 3,214 Level FlightAware UK
Thu 06:13:27 AM 52.1960 4.6150 311° West 453 521 30,000  Climbing FlightAware ADS-B
Thu 06:13:53 AM 52.2289 4.5391 311° West 474 545 28,500  Descending FlightAware UK
Thu 06:14:07 AM 52.2480 4.5110 311° West 453 521 30,000  Climbing FlightAware ADS-B
Thu 06:14:29 AM 52.2760 4.4448 311° West 476 548 28,500 -2,250 Descending FlightAware UK
Thu 06:14:47 AM 52.3003 4.3975 310° West 474 545 28,500 3,913 Level FlightAware UK
Thu 06:14:52 AM 52.3110 4.3880 310° West 455 524 30,000 2,000 Climbing FlightAware ADS-B
Thu 06:15:32 AM 52.3650 4.2820 310° West 457 526 30,000 -1,139 Level FlightAware ADS-B
Thu 06:16:11 AM 52.4123 4.1745 310° West 474 545 28,500  Descending FlightAware UK
Thu 06:16:12 AM 52.4180 4.1770 310° West 459 528 30,000  Climbing FlightAware ADS-B
Thu 06:16:41 AM 52.4520 4.0940 310° West 476 548 28,500  Descending FlightAware UK
Thu 06:16:57 AM 52.4800 4.0520 310° West 460 529 30,000  Climbing FlightAware ADS-B
Thu 06:17:17 AM 52.5010 3.9972 310° West 474 545 28,500  Descending FlightAware UK
Thu 06:17:37 AM 52.5320 3.9470 310° West 462 532 30,000  Climbing FlightAware ADS-B
Thu 06:17:53 AM 52.5494 3.8996 310° West 478 550 28,500 -2,250 Descending FlightAware UK
Thu 06:18:17 AM 52.5816 3.8341 309° West 478 550 28,500 3,103 Level FlightAware UK
Thu 06:18:22 AM 52.5920 3.8260 309° West 465 535 30,000  Climbing FlightAware ADS-B
Thu 06:18:41 AM 52.6145 3.7686 309° West 476 548 28,500 -2,432 Descending FlightAware UK
Thu 06:18:59 AM 52.6385 3.7191 309° West 476 548 28,500 4,286 Level FlightAware UK
Thu 06:19:02 AM 52.6460 3.7170 309° West 466 536 30,000  Climbing FlightAware ADS-B
Thu 06:19:23 AM 52.6711 3.6530 309° West 474 545 28,500 -2,308 Descending FlightAware UK
Thu 06:19:41 AM 52.6956 3.6033 309° West 476 548 28,500 4,737 Level FlightAware UK
Thu 06:19:42 AM 52.7020 3.6040 309° West 470 541 30,000  Climbing FlightAware ADS-B
Thu 06:19:59 AM 52.7200 3.5532 309° West 480 552 28,500 -2,571 Descending FlightAware UK
Thu 06:20:17 AM 52.7446 3.5029 309° West 478 550 28,500 3,913 Level FlightAware UK
Thu 06:20:22 AM 52.7520 3.5010 309° West 472 543 30,000  Climbing FlightAware ADS-B
Thu 06:20:41 AM 52.7771 3.4361 309° West 478 550 28,500  Descending FlightAware UK
Thu 06:21:02 AM 52.8080 3.3870 309° West 475 547 30,000  Climbing FlightAware ADS-B
Thu 06:21:05 AM 52.8101 3.3686 309° West 480 552 28,500 -6,000 Descending FlightAware UK
Thu 06:21:17 AM 52.8266 3.3347 309° West 480 552 28,500  Level FlightAware UK
Thu 06:21:41 AM 52.8595 3.2667 309° West 482 555 28,500 2,571 Level FlightAware UK
Thu 06:21:52 AM 52.8810 3.2370 309° West 476 548 30,000 1,765 Climbing FlightAware ADS-B
Thu 06:22:32 AM 52.9250 3.1190 302° West 456 525 30,000 -1,475 Level FlightAware ADS-B
Thu 06:22:53 AM 52.9307 3.0444 302° West 482 555 28,500  Descending FlightAware UK
Thu 06:23:12 AM 52.9490 2.9840 302° West 451 519 30,000  Climbing FlightAware ADS-B
Thu 06:23:35 AM 52.9550 2.9060 302° West 482 555 28,500 -2,195 Descending FlightAware UK
Thu 06:23:53 AM 52.9633 2.8459 283° West 480 552 28,500 4,091 Level FlightAware UK
Thu 06:23:57 AM 52.9720 2.8340 283° West 447 514 30,000  Climbing FlightAware ADS-B
Thu 06:24:16 AM 52.9734 2.7663 283° West 480 552 28,500 -2,432 Descending FlightAware UK
Thu 06:24:34 AM 52.9807 2.7076 282° West 480 552 28,500 4,286 Level FlightAware UK
Thu 06:24:37 AM 52.9900 2.6970 282° West 448 516 30,000  Climbing FlightAware ADS-B
Thu 06:24:58 AM 52.9912 2.6274 282° West 482 555 28,500  Descending FlightAware UK
Thu 06:25:22 AM 53.0080 2.5480 282° West 449 517 30,000  Climbing FlightAware ADS-B
Thu 06:25:40 AM 53.0089 2.4860 282° West 482 555 28,500  Descending FlightAware UK
Thu 06:26:02 AM 53.0250 2.4120 282° West 451 519 30,000  Climbing FlightAware ADS-B
Thu 06:26:28 AM 53.0290 2.3233 282° West 484 557 28,500  Descending FlightAware UK
Thu 06:26:42 AM 53.0420 2.2800 282° West 452 520 30,000  Climbing FlightAware ADS-B
Thu 06:27:10 AM 53.0467 2.1807 282° West 484 557 28,500  Descending FlightAware UK
Thu 06:27:27 AM 53.0610 2.1240 282° West 453 521 30,000  Climbing FlightAware ADS-B
Thu 06:27:46 AM 53.0619 2.0582 282° West 486 559 28,500 -2,432 Descending FlightAware UK
Thu 06:28:04 AM 53.0693 1.9968 281° West 484 557 28,500 4,286 Level FlightAware UK
Thu 06:28:07 AM 53.0780 1.9850 281° West 453 521 30,000  Climbing FlightAware ADS-B
Thu 06:28:34 AM 53.0815 1.8951 281° West 486 559 28,500  Descending FlightAware UK
Thu 06:28:52 AM 53.0960 1.8350 281° West 454 522 30,000  Climbing FlightAware ADS-B
Thu 06:29:10 AM 53.0963 1.7725 281° West 486 559 28,500 -2,500 Descending FlightAware UK
Thu 06:29:28 AM 53.1036 1.7106 281° West 486 559 28,500 4,091 Level FlightAware UK
Thu 06:29:32 AM 53.1120 1.7000 281° West 456 525 30,000  Climbing FlightAware ADS-B
Thu 06:29:52 AM 53.1137 1.6275 281° West 486 559 28,500 -2,368 Descending FlightAware UK
Thu 06:30:10 AM 53.1209 1.5662 281° West 486 559 28,500 4,500 Level FlightAware UK
Thu 06:30:12 AM 53.1290 1.5600 281° West 456 525 30,000 3,913 Climbing FlightAware ADS-B
Thu 06:30:33 AM 53.1378 1.4819 281° West 457 526 30,000 -1,957 Level FlightAware ADS-B
Thu 06:30:58 AM 53.1401 1.4008 281° West 484 557 28,500  Descending FlightAware UK
Thu 06:31:15 AM 53.1546 1.3367 281° West 457 526 30,000  Climbing FlightAware ADS-B
Thu 06:31:40 AM 53.1568 1.2567 281° West 486 559 28,500  Descending FlightAware UK
Thu 06:31:46 AM 53.1671 1.2280 281° West 458 527 30,000  Climbing FlightAware ADS-B
Thu 06:32:10 AM 53.1686 1.1531 281° West 488 562 28,500  Descending FlightAware UK
Thu 06:32:22 AM 53.1800 1.1110 281° West 458 527 30,000 6,000 Climbing FlightAware ADS-B
Thu 06:32:25 AM 53.1820 1.0962 283° West 459 528 30,000 -3,750 Level FlightAware ADS-B
Thu 06:32:46 AM 53.1830 1.0285 283° West 488 562 28,500  Descending FlightAware UK
Thu 06:33:02 AM 53.1960 0.9730 283° West 458 527 30,000  Climbing FlightAware ADS-B
Thu 06:33:27 AM 53.1993 0.8835 283° West 486 559 28,500  Descending FlightAware UK
Thu 06:33:42 AM 53.2120 0.8330 283° West 458 527 30,000 1,500 Climbing FlightAware ADS-B
Thu 06:34:27 AM 53.2280 0.6810 280° West 457 526 30,000 -1,429 Level FlightAware ADS-B
Thu 06:34:45 AM 53.2291 0.6131 280° West 488 562 28,500  Descending FlightAware UK
Thu 06:35:07 AM 53.2440 0.5390 280° West 456 525 30,000  Climbing FlightAware ADS-B
Thu 06:35:27 AM 53.2447 0.4688 280° West 488 562 28,500  Descending FlightAware UK
Thu 06:35:43 AM 53.2575 0.4089 280° West 455 524 30,000 1,875 Climbing FlightAware ADS-B
Thu 06:36:15 AM 53.2694 0.2997 280° West 456 525 30,000 -1,607 Level FlightAware ADS-B
Thu 06:36:39 AM 53.2712 0.2209 280° West 482 555 28,500  Descending FlightAware UK
Thu 06:36:46 AM 53.2805 0.1918 280° West 456 525 30,000  Climbing FlightAware ADS-B
Thu 06:37:03 AM 53.2799 0.1379 280° West 484 557 28,500  Descending FlightAware UK
Thu 06:37:23 AM 53.2940 0.0627 280° West 457 526 30,000  Climbing FlightAware ADS-B
Thu 06:37:45 AM 53.2953 -0.0069 280° West 486 559 28,500  Descending FlightAware UK
Thu 06:37:56 AM 53.3057 -0.0511 280° West 457 526 30,000 2,143 Climbing FlightAware ADS-B
Thu 06:38:27 AM 53.3167 -0.1587 280° West 456 525 30,000 -1,636 Level FlightAware ADS-B
Thu 06:38:51 AM 53.3187 -0.2351 280° West 486 559 28,500  Descending FlightAware UK
Thu 06:38:58 AM 53.3273 -0.2644 280° West 454 522 30,000  Climbing FlightAware ADS-B
Thu 06:39:15 AM 53.3270 -0.3180 280° West 492 566 28,500  Descending FlightAware UK
Thu 06:39:32 AM 53.3380 -0.3660 280° West 452 520 30,000 3,103 Climbing FlightAware ADS-B
Thu 06:39:44 AM 53.3432 -0.4237 279° West 451 519 30,000 -2,903 Level FlightAware ADS-B
Thu 06:40:03 AM 53.3435 -0.4831 279° West 486 559 28,500  Descending FlightAware UK
Thu 06:40:15 AM 53.3536 -0.5289 279° West 448 516 30,000  Climbing FlightAware ADS-B
Thu 06:40:32 AM 53.3535 -0.5840 279° West 480 552 28,500  Descending FlightAware UK
Thu 06:40:52 AM 53.3658 -0.6559 279° West 447 514 30,000 1,765 Climbing FlightAware ADS-B
Thu 06:41:23 AM 53.3762 -0.7618 279° West 448 516 30,000 -1,406 Level FlightAware ADS-B
Thu 06:41:56 AM 53.3814 -0.8700 279° West 480 552 28,500  Descending FlightAware UK
Thu 06:42:16 AM 53.3935 -0.9436 279° West 449 517 30,000  Climbing FlightAware ADS-B
Thu 06:42:32 AM 53.3931 -0.9934 279° West 480 552 28,500  Descending FlightAware UK
Thu 06:42:47 AM 53.4033 -1.0490 279° West 448 516 30,000  Climbing FlightAware ADS-B
Thu 06:43:02 AM 53.4029 -1.0961 279° West 482 555 28,500  Descending FlightAware UK
Thu 06:43:19 AM 53.4135 -1.1583 279° West 448 516 30,000 1,800 Climbing FlightAware ADS-B
Thu 06:43:52 AM 53.4239 -1.2702 279° West 446 513 30,000  Level FlightAware ADS-B
Thu 06:44:27 AM 53.4340 -1.3800 279° West 443 510 30,000 -1,731 Level FlightAware ADS-B
Thu 06:44:44 AM 53.4350 -1.4426 279° West 482 555 28,500  Descending FlightAware UK
Thu 06:45:00 AM 53.4445 -1.4995 279° West 443 510 30,000  Climbing FlightAware ADS-B
Thu 06:45:26 AM 53.4476 -1.5839 279° West 480 552 28,500  Descending FlightAware UK
Thu 06:45:36 AM 53.4556 -1.6239 279° West 443 510 30,000  Climbing FlightAware ADS-B
Thu 06:45:56 AM 53.4568 -1.6863 279° West 476 548 28,500  Descending FlightAware UK
Thu 06:46:07 AM 53.4647 -1.7269 279° West 443 510 30,000  Climbing FlightAware ADS-B
Thu 06:46:26 AM 53.4658 -1.7873 279° West 478 550 28,500  Descending FlightAware UK
Thu 06:46:39 AM 53.4741 -1.8352 279° West 444 511 30,000  Climbing FlightAware ADS-B
Thu 06:46:56 AM 53.4748 -1.8895 279° West 474 545 28,500  Descending FlightAware UK
Thu 06:47:10 AM 53.4830 -1.9401 279° West 445 512 30,000  Climbing FlightAware ADS-B
Thu 06:47:26 AM 53.4837 -1.9919 279° West 476 548 28,500 -2,727 Descending FlightAware UK
Thu 06:47:43 AM 53.4888 -2.0531 278° West 480 552 28,500 3,600 Level FlightAware UK
Thu 06:47:51 AM 53.4951 -2.0826 278° West 448 516 30,000  Climbing FlightAware ADS-B
Thu 06:48:07 AM 53.4959 -2.1358 278° West 482 555 28,500 -2,250 Descending FlightAware UK
Thu 06:48:31 AM 53.5030 -2.2181 278° West 484 557 28,500 3,000 Level FlightAware UK
Thu 06:48:37 AM 53.5080 -2.2320 278° West 450 518 30,000  Climbing FlightAware ADS-B
Thu 06:48:55 AM 53.5098 -2.3012 278° West 482 555 28,500 -2,143 Descending FlightAware UK
Thu 06:49:19 AM 53.5167 -2.3842 278° West 484 557 28,500 3,333 Level FlightAware UK
Thu 06:49:22 AM 53.5210 -2.3900 278° West 450 518 30,000  Climbing FlightAware ADS-B
Thu 06:49:37 AM 53.5218 -2.4465 278° West 486 559 28,500  Descending FlightAware UK
Thu 06:50:02 AM 53.5320 -2.5280 278° West 448 516 30,000  Climbing FlightAware ADS-B
Thu 06:50:25 AM 53.5358 -2.6120 278° West 482 555 28,500 -2,195 Descending FlightAware UK
Thu 06:50:43 AM 53.5404 -2.6734 277° West 480 552 28,500 4,091 Level FlightAware UK
Thu 06:50:47 AM 53.5440 -2.6800 277° West 447 514 30,000  Climbing FlightAware ADS-B
Thu 06:51:07 AM 53.5469 -2.7566 277° West 480 552 28,500 -2,368 Descending FlightAware UK
Thu 06:51:25 AM 53.5518 -2.8179 278° West 480 552 28,500 4,500 Level FlightAware UK
Thu 06:51:27 AM 53.5550 -2.8160 278° West 448 516 30,000  Climbing FlightAware ADS-B
Thu 06:51:49 AM 53.5585 -2.9008 278° West 482 555 28,500  Descending FlightAware UK
Thu 06:52:07 AM 53.5660 -2.9550 278° West 448 516 30,000  Climbing FlightAware ADS-B
Thu 06:52:25 AM 53.5683 -3.0252 278° West 482 555 28,500 -2,500 Descending FlightAware UK
Thu 06:52:43 AM 53.5730 -3.0874 277° West 480 552 28,500 3,333 Level FlightAware UK
Thu 06:52:52 AM 53.5770 -3.1120 277° West 448 516 30,000  Climbing FlightAware ADS-B
Thu 06:53:07 AM 53.5794 -3.1703 277° West 480 552 28,500  Descending FlightAware UK
Thu 06:53:32 AM 53.5880 -3.2520 277° West 448 516 30,000  Climbing FlightAware ADS-B
Thu 06:53:49 AM 53.5902 -3.3148 277° West 478 550 28,500 -2,571 Descending FlightAware UK
Thu 06:54:07 AM 53.5948 -3.3771 277° West 480 552 28,500 3,214 Level FlightAware UK
Thu 06:54:17 AM 53.5980 -3.3940 277° West 450 518 30,000  Climbing FlightAware ADS-B
Thu 06:54:37 AM 53.6026 -3.4813 277° West 478 550 28,500  Descending FlightAware UK
Thu 06:54:57 AM 53.6080 -3.5300 277° West 451 519 30,000 1,500 Climbing FlightAware ADS-B
Thu 06:55:37 AM 53.6190 -3.6850 277° West 453 521 30,000 -1,286 Level FlightAware ADS-B
Thu 06:56:07 AM 53.6219 -3.7954 277° West 482 555 28,500  Descending FlightAware UK
Thu 06:56:22 AM 53.6250 -3.8410 277° West 451 519 30,000  Climbing FlightAware ADS-B
Thu 06:56:37 AM 53.6255 -3.9003 277° West 480 552 28,500 -2,727 Descending FlightAware UK
Thu 06:56:55 AM 53.6279 -3.9635 274° West 484 557 28,500 3,600 Level FlightAware UK
Thu 06:57:02 AM 53.6300 -3.9800 274° West 451 519 30,000  Climbing FlightAware ADS-B
Thu 06:57:25 AM 53.6320 -4.0688 274° West 482 555 28,500  Descending FlightAware UK
Thu 06:57:47 AM 53.6360 -4.1360 274° West 451 519 30,000  Climbing FlightAware ADS-B
Thu 06:58:06 AM 53.6377 -4.2155 274° West 482 555 28,500 -2,432 Descending FlightAware UK
Thu 06:58:24 AM 53.6403 -4.2787 274° West 482 555 28,500 4,286 Level FlightAware UK
Thu 06:58:27 AM 53.6410 -4.2740 274° West 451 519 30,000  Climbing FlightAware ADS-B
Thu 06:58:48 AM 53.6435 -4.3629 274° West 482 555 28,500  Descending FlightAware UK
Thu 06:59:07 AM 53.6470 -4.4160 274° West 452 520 30,000  Climbing FlightAware ADS-B
Thu 06:59:30 AM 53.6489 -4.5104 274° West 484 557 28,500  Descending FlightAware UK
Thu 06:59:47 AM 53.6510 -4.5460 274° West 451 519 30,000  Climbing FlightAware ADS-B
Thu 06:59:48 AM 53.6512 -4.5736 274° West 484 557 28,500 -4,737 Descending FlightAware UK
Thu 07:00:06 AM 53.6534 -4.6368 274° West 484 557 28,500 2,045 Level FlightAware UK
Thu 07:00:32 AM 53.6570 -4.7080 274° West 451 519 30,000  Climbing FlightAware ADS-B
Thu 07:00:48 AM 53.6585 -4.7841 274° West 482 555 28,500 -2,647 Descending FlightAware UK
Thu 07:01:06 AM 53.6607 -4.8471 273° West 486 559 28,500 3,750 Level FlightAware UK
Thu 07:01:12 AM 53.6620 -4.8520 273° West 451 519 30,000 250 Climbing FlightAware ADS-B
Thu 07:01:30 AM 53.6634 -4.9304 273° West 484 557 28,600 -1,667 Descending FlightAware UK
Thu 07:01:48 AM 53.6652 -4.9935 273° West 484 557 29,000 4,667 Climbing FlightAware UK
Thu 07:01:57 AM 53.6660 -5.0060 273° West 448 516 30,700 1,000 Climbing FlightAware ADS-B
Thu 07:02:12 AM 53.6676 -5.0774 273° West 482 555 29,400 1,050 Descending FlightAware UK
Thu 07:02:37 AM 53.6710 -5.1480 273° West 450 518 31,400 1,286 Climbing FlightAware ADS-B
Thu 07:02:54 AM 53.6722 -5.2245 273° West 478 550 30,300 -1,543 Descending FlightAware UK
Thu 07:03:12 AM 53.6741 -5.2876 273° West 478 550 30,500 3,643 Climbing FlightAware UK
Thu 07:03:22 AM 53.6750 -5.3060 273° West 452 520 32,000 -200 Climbing FlightAware ADS-B
Thu 07:03:42 AM 53.6771 -5.3930 273° West 476 548 30,400 -2,368 Descending FlightAware UK
Thu 07:04:00 AM 53.6791 -5.4565 273° West 480 552 30,500 4,800 Climbing FlightAware UK
Thu 07:04:02 AM 53.6800 -5.4480 273° West 457 526 32,000 -333 Climbing FlightAware ADS-B
Thu 07:04:18 AM 53.6907 -5.5189 273° West 480 552 30,400 -2,824 Descending FlightAware UK
Thu 07:04:36 AM 53.7069 -5.5777 295° West 480 552 30,400 4,000 Level FlightAware UK
Thu 07:04:42 AM 53.7080 -5.5820 295° West 459 528 32,000 4,571 Climbing FlightAware ADS-B
Thu 07:04:57 AM 53.7140 -5.6340 281° West 455 524 32,000 -3,000 Level FlightAware ADS-B
Thu 07:05:12 AM 53.7148 -5.7042 281° West 478 550 30,500 -2,727 Descending FlightAware UK
Thu 07:05:30 AM 53.7176 -5.7681 274° West 480 552 30,500 3,000 Level FlightAware UK
Thu 07:05:42 AM 53.7200 -5.7960 274° West 459 528 32,000  Climbing FlightAware ADS-B
Thu 07:06:00 AM 53.7249 -5.8754 274° West 488 562 30,500 -2,500 Descending FlightAware UK
Thu 07:06:18 AM 53.7300 -5.9396 278° West 488 562 30,500 4,091 Level FlightAware UK
Thu 07:06:22 AM 53.7300 -5.9320 278° West 461 531 32,000  Climbing FlightAware ADS-B
Thu 07:06:42 AM 53.7375 -6.0247 278° West 488 562 30,500 -2,368 Descending FlightAware UK
Thu 07:07:00 AM 53.7429 -6.0876 278° West 484 557 30,500 3,600 Level FlightAware UK
Thu 07:07:07 AM 53.7430 -6.0880 278° West 450 518 32,000  Climbing FlightAware ADS-B
Thu 07:07:24 AM 53.7500 -6.1696 278° West 474 545 30,500 -2,571 Descending FlightAware UK
Thu 07:07:42 AM 53.7547 -6.2318 277° West 474 545 30,500 3,913 Level FlightAware UK
Thu 07:07:47 AM 53.7540 -6.2330 277° West 445 512 32,000  Climbing FlightAware ADS-B
Thu 07:08:06 AM 53.7588 -6.3145 277° West 474 545 30,500 -2,432 Descending FlightAware UK
Thu 07:08:24 AM 53.7627 -6.3766 276° West 470 541 30,500 3,462 Level FlightAware UK
Thu 07:08:32 AM 53.7630 -6.3830 276° West 443 510 32,000  Climbing FlightAware ADS-B
Thu 07:08:48 AM 53.7677 -6.4593 276° West 470 541 30,500 -2,647 Descending FlightAware UK
Thu 07:09:06 AM 53.7716 -6.5214 276° West 470 541 30,500 4,737 Level FlightAware UK
Thu 07:09:07 AM 53.7710 -6.5100 276° West 445 512 32,000  Climbing FlightAware ADS-B
Thu 07:09:24 AM 53.7755 -6.5835 276° West 474 545 30,500 -2,571 Descending FlightAware UK
Thu 07:09:42 AM 53.7793 -6.6460 276° West 472 543 30,500 3,214 Level FlightAware UK
Thu 07:09:52 AM 53.7790 -6.6490 276° West 451 519 32,000  Climbing FlightAware ADS-B
Thu 07:10:12 AM 53.7859 -6.7519 276° West 476 548 30,500  Descending FlightAware UK
Thu 07:10:27 AM 53.7870 -6.7740 276° West 456 525 32,000  Climbing FlightAware ADS-B
Thu 07:10:30 AM 53.7899 -6.8160 276° West 478 550 30,500 -6,000 Descending FlightAware UK
Thu 07:10:42 AM 53.7926 -6.8586 276° West 480 552 30,500  Level FlightAware UK
Thu 07:11:00 AM 53.7964 -6.9228 276° West 484 557 30,500  Level FlightAware UK
Thu 07:11:18 AM 53.8003 -6.9874 276° West 484 557 30,500 3,333 Level FlightAware UK
Thu 07:11:27 AM 53.8000 -6.9900 276° West 464 534 32,000  Climbing FlightAware ADS-B
Thu 07:11:42 AM 53.8052 -7.0738 276° West 484 557 30,500 -2,727 Descending FlightAware UK
Thu 07:12:00 AM 53.8091 -7.1388 276° West 490 564 30,500 3,000 Level FlightAware UK
Thu 07:12:12 AM 53.8110 -7.1780 276° West 467 537 32,000  Climbing FlightAware ADS-B
Thu 07:12:30 AM 53.8151 -7.2474 276° West 494 568 30,500 -2,500 Descending FlightAware UK
Thu 07:12:48 AM 53.8188 -7.3121 275° West 488 562 30,500 3,333 Level FlightAware UK
Thu 07:12:57 AM 53.8200 -7.3370 275° West 467 537 32,000  Climbing FlightAware ADS-B
Thu 07:13:12 AM 53.8237 -7.3991 275° West 486 559 30,500 -2,727 Descending FlightAware UK
Thu 07:13:30 AM 53.8272 -7.4645 275° West 486 559 30,500 3,600 Level FlightAware UK
Thu 07:13:37 AM 53.8280 -7.4830 275° West 467 537 32,000  Climbing FlightAware ADS-B
Thu 07:13:54 AM 53.8320 -7.5517 275° West 486 559 30,500 -2,195 Descending FlightAware UK
Thu 07:14:18 AM 53.8366 -7.6391 275° West 494 568 30,500 3,214 Level FlightAware UK
Thu 07:14:22 AM 53.8360 -7.6470 275° West 467 537 32,000  Climbing FlightAware ADS-B
Thu 07:14:42 AM 53.8413 -7.7264 275° West 492 566 30,500 -2,368 Descending FlightAware UK
Thu 07:15:00 AM 53.8447 -7.7917 275° West 494 568 30,500 4,500 Level FlightAware UK
Thu 07:15:02 AM 53.8440 -7.7930 275° West 465 535 32,000  Climbing FlightAware ADS-B
Thu 07:15:18 AM 53.8482 -7.8569 275° West 488 562 30,500 -2,647 Descending FlightAware UK
Thu 07:15:36 AM 53.8514 -7.9219 275° West 482 555 30,500 3,103 Level FlightAware UK
Thu 07:15:47 AM 53.8520 -7.9500 275° West 464 534 32,000  Climbing FlightAware ADS-B
Thu 07:16:06 AM 53.8568 -8.0302 275° West 486 559 30,500 -2,432 Descending FlightAware UK
Thu 07:16:24 AM 53.8600 -8.0952 275° West 488 562 30,500 4,286 Level FlightAware UK
Thu 07:16:27 AM 53.8590 -8.0970 275° West 466 536 32,000  Climbing FlightAware ADS-B
Thu 07:16:42 AM 53.8631 -8.1604 275° West 486 559 30,500 -2,727 Descending FlightAware UK
Thu 07:17:00 AM 53.8664 -8.2256 275° West 494 568 30,500 3,600 Level FlightAware UK
Thu 07:17:07 AM 53.8660 -8.2370 275° West 465 535 32,000  Climbing FlightAware ADS-B
Thu 07:17:24 AM 53.8706 -8.3124 275° West 494 568 30,500  Descending FlightAware UK
Thu 07:17:52 AM 53.8740 -8.4090 275° West 462 532 32,000 1,324 Climbing FlightAware ADS-B
Thu 07:18:32 AM 53.8800 -8.5490 274° West 460 529 32,000 -1,607 Level FlightAware ADS-B
Thu 07:18:48 AM 53.8846 -8.6139 274° West 482 555 30,500 -2,647 Descending FlightAware UK
Thu 07:19:06 AM 53.8875 -8.6781 274° West 482 555 30,500  Level FlightAware UK
Thu 07:19:24 AM 53.8903 -8.7422 274° West 482 555 30,500  Level FlightAware UK
Thu 07:19:42 AM 53.8931 -8.8063 274° West 486 559 30,500  Level FlightAware UK
Thu 07:20:00 AM 53.8959 -8.8706 274° West 486 559 30,500  Level FlightAware UK
Thu 07:20:18 AM 53.8985 -8.9348 274° West 488 562 30,500  Level FlightAware UK
Thu 07:20:36 AM 53.9011 -8.9990 274° West 482 555 30,500 1,216 Level FlightAware UK
Thu 07:21:32 AM 53.9070 -9.1790 274° West 459 528 32,000 246 Climbing FlightAware ADS-B
Thu 07:24:00 AM 53.9583 -9.6671 280° West  Level Estimated
Thu 07:25:00 AM 53.9785 -9.8654 280° West  Level Estimated
Thu 07:26:00 AM 53.9984 -10.0638 280° West  Level Estimated
Thu 07:26:42 AM 53.9450 -10.2750 280° West 449 517 32,000  Level FlightAware ADS-B
Thu 07:28:42 AM 53.9570 -10.6970 273° West 445 512 32,000  Level FlightAware ADS-B
Thu 07:29:32 AM 53.9620 -10.8660 273° West 446 513 32,000  Level FlightAware ADS-B
Thu 07:30:07 AM 53.9650 -10.9910 272° West 449 517 32,000  Level FlightAware ADS-B
Thu 07:30:57 AM 53.9690 -11.1830 272° West 451 519 32,000  Level FlightAware ADS-B
Thu 07:31:37 AM 53.9720 -11.3200 272° West 452 520 32,000  Level FlightAware ADS-B
Thu 07:32:17 AM 53.9760 -11.4650 273° West 453 521 32,000  Level FlightAware ADS-B
Thu 07:33:02 AM 53.9790 -11.6220 272° West 453 521 32,000  Level FlightAware ADS-B
Thu 07:33:42 AM 53.9810 -11.7660 271° West 452 520 32,000  Level FlightAware ADS-B
Thu 07:34:27 AM 53.9840 -11.9220 272° West 452 520 32,000  Level FlightAware ADS-B
Thu 07:35:07 AM 53.9860 -12.0640 271° West 451 519 32,000  Level FlightAware ADS-B
Thu 07:35:52 AM 53.9890 -12.2210 272° West 451 519 32,000  Level FlightAware ADS-B
Thu 07:36:32 AM 53.9910 -12.3640 271° West 451 519 32,000  Level FlightAware ADS-B
Thu 07:37:12 AM 53.9920 -12.5070 271° West 452 520 32,000  Level FlightAware ADS-B
Thu 07:37:57 AM 53.9940 -12.6690 271° West 452 520 32,000  Level FlightAware ADS-B
Thu 07:38:37 AM 53.9960 -12.8040 271° West 452 520 32,000  Level FlightAware ADS-B
Thu 07:39:17 AM 53.9970 -12.9480 271° West 452 520 32,000  Level FlightAware ADS-B
Thu 07:40:02 AM 53.9990 -13.1110 271° West 452 520 32,000  Level FlightAware ADS-B
Thu 07:40:37 AM 53.9990 -13.2330 270° West 452 520 32,000  Level FlightAware ADS-B
Thu 07:41:22 AM 54.0000 -13.3900 271° West 453 521 32,000  Level FlightAware ADS-B
Thu 07:42:07 AM 54.0010 -13.5570 271° West 453 521 32,000  Level FlightAware ADS-B
Thu 07:42:47 AM 54.0020 -13.6980 271° West 454 522 32,000  Level FlightAware ADS-B
Thu 07:43:32 AM 54.0020 -13.8510 270° West 454 522 32,000  Level FlightAware ADS-B
Thu 07:44:12 AM 54.0020 -13.9880 270° West 454 522 32,000  Level FlightAware ADS-B
Thu 07:44:47 AM 54.0020 -14.1010 270° West 454 522 32,000  Level FlightAware ADS-B
Thu 07:45:37 AM 54.0020 -14.2530 270° West 454 522 32,000  Level FlightAware ADS-B
Thu 07:46:17 AM 54.0020 -14.3740 270° West 454 522 32,000  Level FlightAware ADS-B
Thu 07:46:57 AM 54.0020 -14.4960 270° West 454 522 32,000  Level FlightAware ADS-B
Thu 07:47:37 AM 54.0020 -14.6170 270° West 454 522 32,000  Level FlightAware ADS-B
Thu 07:48:17 AM 54.0020 -14.7390 270° West 454 522 32,000  Level FlightAware ADS-B
Thu 07:49:07 AM 54.0020 -14.8900 270° West 454 522 32,000  Level FlightAware ADS-B
Thu 07:49:47 AM 54.0020 -15.0120 270° West 454 522 32,000  Level FlightAware ADS-B
Thu 07:50:27 AM 54.0020 -15.1340 270° West 454 522 32,000  Level FlightAware ADS-B
Thu 07:51:07 AM 54.0020 -15.2550 270° West 454 522 32,000  Level FlightAware ADS-B
Thu 07:51:47 AM 54.0020 -15.3770 270° West 454 522 32,000  Level FlightAware ADS-B
Thu 07:52:37 AM 54.0020 -15.5280 270° West 454 522 32,000  Level FlightAware ADS-B
Thu 07:53:17 AM 54.0020 -15.6500 270° West 454 522 32,000  Level FlightAware ADS-B
Thu 07:53:57 AM 54.0020 -15.7710 270° West 454 522 32,000  Level FlightAware ADS-B
Thu 07:56:00 AM 54.0244 -16.1821 275° West  Level Estimated
Thu 07:57:00 AM 54.0348 -16.3828 275° West  Level Estimated
Thu 07:58:00 AM 54.0358 -16.5885 271° West  Level FlightAware Approximate
Thu 07:59:00 AM 54.0363 -16.7942 270° West  Level FlightAware Approximate
Thu 08:00:00 AM 54.0366 -16.9999 270° West  Level FlightAware Approximate
Thu 08:01:00 AM 54.0364 -17.2056 270° West  Level FlightAware Approximate
Thu 08:02:00 AM 54.0360 -17.4113 270° West  Level FlightAware Approximate
Thu 08:03:00 AM 54.0351 -17.6170 270° West  Level FlightAware Approximate
Thu 08:04:00 AM 54.0340 -17.8227 270° West  Level FlightAware Approximate
Thu 08:05:00 AM 54.0325 -18.0284 269° West  Level FlightAware Approximate
Thu 08:06:00 AM 54.0306 -18.2340 269° West  Level FlightAware Approximate
Thu 08:07:00 AM 54.0283 -18.4396 269° West  Level FlightAware Approximate
Thu 08:08:00 AM 54.0258 -18.6453 269° West  Level FlightAware Approximate
Thu 08:09:00 AM 54.0228 -18.8508 269° West  Level FlightAware Approximate
Thu 08:10:00 AM 54.0196 -19.0564 269° West  Level FlightAware Approximate
Thu 08:11:00 AM 54.0159 -19.2619 268° West  Level FlightAware Approximate
Thu 08:12:00 AM 54.0119 -19.4674 268° West  Level FlightAware Approximate
Thu 08:12:00 AM 54.0000 -20.0000 265° West 451 519 32,000  Level ETMS Enhanced Traffic Management System
Thu 08:13:00 AM 54.0076 -19.6728 268° West  Level FlightAware Approximate
Thu 08:14:00 AM 54.0029 -19.8782 268° West  Level FlightAware Approximate
Thu 08:15:00 AM 53.9953 -20.0832 265° West  Level FlightAware Approximate
Thu 08:16:00 AM 53.9834 -20.2877 264° West  Level FlightAware Approximate
Thu 08:17:00 AM 53.9711 -20.4920 264° West  Level FlightAware Approximate
Thu 08:18:00 AM 53.9586 -20.6963 264° West  Level FlightAware Approximate
Thu 08:19:00 AM 53.9067 -21.4851 263° West 451 519 32,000  Level FlightAware Transoceanic
Thu 08:20:00 AM 53.8918 -21.6967 263° West 451 519 32,000  Level FlightAware Transoceanic
Thu 08:21:00 AM 53.8766 -21.9081 263° West 451 519 32,000  Level FlightAware Transoceanic
Thu 08:22:00 AM 53.8611 -22.1194 263° West 451 519 32,000  Level FlightAware Transoceanic
Thu 08:23:00 AM 53.8451 -22.3305 263° West 451 519 32,000  Level FlightAware Transoceanic
Thu 08:24:00 AM 53.8288 -22.5415 262° West 451 519 32,000  Level FlightAware Transoceanic
Thu 08:25:00 AM 53.8121 -22.7523 262° West 451 519 32,000  Level FlightAware Transoceanic
Thu 08:26:00 AM 53.7951 -22.9629 262° West 451 519 32,000  Level FlightAware Transoceanic
Thu 08:27:00 AM 53.7776 -23.1734 262° West 451 519 32,000  Level FlightAware Transoceanic
Thu 08:28:00 AM 53.7599 -23.3837 262° West 451 519 32,000  Level FlightAware Transoceanic
Thu 08:29:00 AM 53.7417 -23.5938 262° West 451 519 32,000  Level FlightAware Transoceanic
Thu 08:30:00 AM 53.7232 -23.8037 261° West 451 519 32,000  Level FlightAware Transoceanic
Thu 08:31:00 AM 53.7043 -24.0134 261° West 451 519 32,000  Level FlightAware Transoceanic
Thu 08:32:00 AM 53.6850 -24.2229 261° West 451 519 32,000  Level FlightAware Transoceanic
Thu 08:33:00 AM 53.6654 -24.4323 261° West 451 519 32,000  Level FlightAware Transoceanic
Thu 08:34:00 AM 53.6454 -24.6414 261° West 451 519 32,000  Level FlightAware Transoceanic
Thu 08:35:00 AM 53.6251 -24.8504 261° West 451 519 32,000  Level FlightAware Transoceanic
Thu 08:36:00 AM 53.6044 -25.0591 260° West 451 519 32,000  Level FlightAware Transoceanic
Thu 08:37:00 AM 53.5833 -25.2677 260° West 451 519 32,000  Level FlightAware Transoceanic
Thu 08:38:00 AM 53.5619 -25.4760 260° West 451 519 32,000  Level FlightAware Transoceanic
Thu 08:39:00 AM 53.5401 -25.6841 260° West 451 519 32,000  Level FlightAware Transoceanic
Thu 08:40:00 AM 53.5179 -25.8920 260° West 451 519 32,000  Level FlightAware Transoceanic
Thu 08:41:00 AM 53.4954 -26.0997 260° West 451 519 32,000  Level FlightAware Transoceanic
Thu 08:42:00 AM 53.4725 -26.3071 259° West 451 519 32,000  Level FlightAware Transoceanic
Thu 08:43:00 AM 53.4493 -26.5144 259° West 451 519 32,000  Level FlightAware Transoceanic
Thu 08:44:00 AM 53.4257 -26.7214 259° West 451 519 32,000  Level FlightAware Transoceanic
Thu 08:45:00 AM 53.4017 -26.9282 259° West 451 519 32,000  Level FlightAware Transoceanic
Thu 08:46:00 AM 53.3774 -27.1347 259° West 451 519 32,000  Level FlightAware Transoceanic
Thu 08:47:00 AM 53.3527 -27.3410 259° West 451 519 32,000  Level FlightAware Transoceanic
Thu 08:48:00 AM 53.3277 -27.5471 258° West 451 519 32,000  Level FlightAware Transoceanic
Thu 08:49:00 AM 53.3023 -27.7529 258° West 451 519 32,000  Level FlightAware Transoceanic
Thu 08:50:00 AM 53.2766 -27.9584 258° West 451 519 32,000  Level FlightAware Transoceanic
Thu 08:51:00 AM 53.2505 -28.1638 258° West 451 519 32,000  Level FlightAware Transoceanic
Thu 08:52:00 AM 53.2241 -28.3688 258° West 451 519 32,000  Level FlightAware Transoceanic
Thu 08:53:00 AM 53.1973 -28.5737 258° West 451 519 32,000  Level FlightAware Transoceanic
Thu 08:54:00 AM 53.1702 -28.7782 257° West 451 519 32,000  Level FlightAware Transoceanic
Thu 08:55:00 AM 53.1427 -28.9825 257° West 451 519 32,000  Level FlightAware Transoceanic
Thu 08:56:00 AM 53.1148 -29.1865 257° West 451 519 32,000  Level FlightAware Transoceanic
Thu 08:57:00 AM 53.0866 -29.3903 257° West 451 519 32,000  Level FlightAware Transoceanic
Thu 08:58:00 AM 53.0581 -29.5938 257° West 451 519 32,000  Level FlightAware Transoceanic
Thu 08:59:00 AM 53.0292 -29.7970 257° West 451 519 32,000 18 Level FlightAware Transoceanic
Thu 09:00:00 AM 53.0011 -29.9923 257° West  Level FlightAware Approximate
Thu 09:01:00 AM 52.9728 -30.1874 256° West  Level FlightAware Approximate
Thu 09:02:00 AM 52.9895 -30.1841 265° West  Level FlightAware Approximate
Thu 09:03:00 AM 52.9778 -30.3838 265° West  Level FlightAware Approximate
Thu 09:04:00 AM 52.9658 -30.5834 264° West  Level FlightAware Approximate
Thu 09:05:00 AM 52.9534 -30.7829 264° West  Level FlightAware Approximate
Thu 09:06:00 AM 52.9407 -30.9823 264° West  Level FlightAware Approximate
Thu 09:07:00 AM 52.9276 -31.1815 264° West  Level FlightAware Approximate
Thu 09:08:00 AM 52.9142 -31.3806 264° West  Level FlightAware Approximate
Thu 09:09:00 AM 52.9005 -31.5797 264° West  Level FlightAware Approximate
Thu 09:10:00 AM 52.8865 -31.7785 263° West  Level FlightAware Approximate
Thu 09:11:00 AM 52.8721 -31.9773 263° West  Level FlightAware Approximate
Thu 09:12:00 AM 52.8574 -32.1759 263° West  Level FlightAware Approximate
Thu 09:13:00 AM 52.8424 -32.3744 263° West  Level FlightAware Approximate
Thu 09:14:00 AM 52.8270 -32.5727 263° West  Level FlightAware Approximate
Thu 09:15:00 AM 52.8113 -32.7709 263° West  Level FlightAware Approximate
Thu 09:16:00 AM 52.7953 -32.9690 262° West  Level FlightAware Approximate
Thu 09:17:00 AM 52.7789 -33.1669 262° West  Level FlightAware Approximate
Thu 09:18:00 AM 52.7622 -33.3647 262° West  Level FlightAware Approximate
Thu 09:19:00 AM 52.7452 -33.5622 262° West  Level FlightAware Approximate
Thu 09:20:00 AM 52.7279 -33.7597 262° West  Level FlightAware Approximate
Thu 09:21:00 AM 52.7102 -33.9570 262° West  Level FlightAware Approximate
Thu 09:22:00 AM 52.6922 -34.1541 262° West  Level FlightAware Approximate
Thu 09:23:00 AM 52.6739 -34.3511 261° West  Level FlightAware Approximate
Thu 09:24:00 AM 52.6553 -34.5479 261° West  Level FlightAware Approximate
Thu 09:25:00 AM 52.6363 -34.7445 261° West  Level FlightAware Approximate
Thu 09:26:00 AM 52.6170 -34.9410 261° West  Level FlightAware Approximate
Thu 09:27:00 AM 52.5974 -35.1372 261° West  Level FlightAware Approximate
Thu 09:28:00 AM 52.5774 -35.3334 261° West  Level FlightAware Approximate
Thu 09:29:00 AM 52.5572 -35.5293 260° West  Level FlightAware Approximate
Thu 09:30:00 AM 52.5365 -35.7250 260° West  Level FlightAware Approximate
Thu 09:31:00 AM 52.5156 -35.9206 260° West  Level FlightAware Approximate
Thu 09:32:00 AM 52.4944 -36.1159 260° West  Level FlightAware Approximate
Thu 09:33:00 AM 52.4728 -36.3111 260° West  Level FlightAware Approximate
Thu 09:34:00 AM 52.4510 -36.5061 260° West  Level FlightAware Approximate
Thu 09:35:00 AM 52.4287 -36.7009 259° West  Level FlightAware Approximate
Thu 09:36:00 AM 52.4062 -36.8955 259° West  Level FlightAware Approximate
Thu 09:37:00 AM 52.3834 -37.0899 259° West  Level FlightAware Approximate
Thu 09:38:00 AM 52.3602 -37.2841 259° West  Level FlightAware Approximate
Thu 09:39:00 AM 52.3368 -37.4781 259° West  Level FlightAware Approximate
Thu 09:40:00 AM 52.3130 -37.6718 259° West  Level FlightAware Approximate
Thu 09:41:00 AM 52.2888 -37.8654 259° West  Level FlightAware Approximate
Thu 09:42:00 AM 52.2644 -38.0588 258° West  Level FlightAware Approximate
Thu 09:43:00 AM 52.2397 -38.2519 258° West  Level FlightAware Approximate
Thu 09:44:00 AM 52.2146 -38.4448 258° West  Level FlightAware Approximate
Thu 09:45:00 AM 52.1892 -38.6376 258° West  Level FlightAware Approximate
Thu 09:46:00 AM 52.1636 -38.8300 258° West  Level FlightAware Approximate
Thu 09:47:00 AM 52.1376 -39.0223 258° West  Level FlightAware Approximate
Thu 09:48:00 AM 52.1112 -39.2143 257° West  Level FlightAware Approximate
Thu 09:49:00 AM 52.0846 -39.4062 257° West  Level FlightAware Approximate
Thu 09:50:00 AM 52.0577 -39.5977 257° West  Level FlightAware Approximate
Thu 09:51:00 AM 52.0304 -39.7891 257° West  Level FlightAware Approximate
Thu 09:52:00 AM 52.0029 -39.9802 257° West  Level FlightAware Approximate
Thu 09:53:00 AM 51.9598 -40.1632 248° West  Level FlightAware Approximate
Thu 09:54:00 AM 51.9146 -40.3449 248° West  Level FlightAware Approximate
Thu 09:55:00 AM 51.8691 -40.5262 248° West  Level FlightAware Approximate
Thu 09:56:00 AM 51.8234 -40.7072 248° West  Level FlightAware Approximate
Thu 09:57:00 AM 51.7774 -40.8879 248° West  Level FlightAware Approximate
Thu 09:58:00 AM 51.7311 -41.0681 248° West  Level FlightAware Approximate
Thu 09:59:00 AM 51.6845 -41.2480 247° West  Level FlightAware Approximate
Thu 10:00:00 AM 51.6376 -41.4274 247° West  Level FlightAware Approximate
Thu 10:01:00 AM 51.5904 -41.6065 247° West  Level FlightAware Approximate
Thu 10:02:00 AM 51.5428 -41.7851 247° West  Level FlightAware Approximate
Thu 10:03:00 AM 51.4950 -41.9634 247° West  Level FlightAware Approximate
Thu 10:04:00 AM 51.4469 -42.1413 247° West  Level FlightAware Approximate
Thu 10:05:00 AM 51.3986 -42.3189 246° West  Level FlightAware Approximate
Thu 10:06:00 AM 51.3500 -42.4960 246° West  Level FlightAware Approximate
Thu 10:07:00 AM 51.3015 -42.6731 247° West  Level FlightAware Approximate
Thu 10:08:00 AM 51.2537 -42.8505 247° West  Level FlightAware Approximate
Thu 10:09:00 AM 51.2057 -43.0275 247° West  Level FlightAware Approximate
Thu 10:10:00 AM 51.1573 -43.2041 246° West  Level FlightAware Approximate
Thu 10:11:00 AM 51.1087 -43.3803 246° West  Level FlightAware Approximate
Thu 10:12:00 AM 51.0598 -43.5562 246° West  Level FlightAware Approximate
Thu 10:13:00 AM 51.0107 -43.7317 246° West  Level FlightAware Approximate
Thu 10:14:00 AM 50.9613 -43.9068 246° West  Level FlightAware Approximate
Thu 10:15:00 AM 50.9117 -44.0816 246° West  Level FlightAware Approximate
Thu 10:16:00 AM 50.8617 -44.2559 246° West  Level FlightAware Approximate
Thu 10:17:00 AM 50.8116 -44.4299 246° West  Level FlightAware Approximate
Thu 10:18:00 AM 50.7611 -44.6036 245° Southwest  Level FlightAware Approximate
Thu 10:19:00 AM 50.7104 -44.7768 245° Southwest  Level FlightAware Approximate
Thu 10:20:00 AM 50.6595 -44.9497 245° Southwest  Level FlightAware Approximate
Thu 10:21:00 AM 50.6083 -45.1222 245° Southwest  Level FlightAware Approximate
Thu 10:22:00 AM 50.5563 -45.2939 244° Southwest  Level FlightAware Approximate
Thu 10:23:00 AM 50.5039 -45.4651 244° Southwest  Level FlightAware Approximate
Thu 10:24:00 AM 50.4512 -45.6360 244° Southwest  Level FlightAware Approximate
Thu 10:25:00 AM 50.3984 -45.8065 244° Southwest  Level FlightAware Approximate
Thu 10:26:00 AM 50.3452 -45.9766 244° Southwest  Level FlightAware Approximate
Thu 10:27:00 AM 50.2919 -46.1463 244° Southwest  Level FlightAware Approximate
Thu 10:28:00 AM 50.2382 -46.3156 244° Southwest  Level FlightAware Approximate
Thu 10:29:00 AM 50.1842 -46.4844 243° Southwest  Level FlightAware Approximate
Thu 10:30:00 AM 50.1297 -46.6528 243° Southwest  Level FlightAware Approximate
Thu 10:31:00 AM 50.0751 -46.8207 243° Southwest  Level FlightAware Approximate
Thu 10:32:00 AM 50.0202 -46.9883 243° Southwest  Level FlightAware Approximate
Thu 10:33:00 AM 49.9650 -47.1555 243° Southwest  Level FlightAware Approximate
Thu 10:34:00 AM 49.9097 -47.3223 243° Southwest  Level FlightAware Approximate
Thu 10:35:00 AM 49.8541 -47.4887 243° Southwest  Level FlightAware Approximate
Thu 10:36:00 AM 49.7986 -47.6551 243° Southwest  Level FlightAware Approximate
Thu 10:37:00 AM 49.7439 -47.8218 243° Southwest  Level FlightAware Approximate
Thu 10:38:00 AM 49.6888 -47.9881 243° Southwest  Level FlightAware Approximate
Thu 10:39:00 AM 49.6336 -48.1541 243° Southwest  Level FlightAware Approximate
Thu 10:40:00 AM 49.5781 -48.3196 243° Southwest  Level FlightAware Approximate
Thu 10:41:00 AM 49.5223 -48.4849 243° Southwest  Level FlightAware Approximate
Thu 10:42:00 AM 49.4664 -48.6497 242° Southwest  Level FlightAware Approximate
Thu 10:43:00 AM 49.4102 -48.8141 242° Southwest  Level FlightAware Approximate
Thu 10:44:00 AM 49.3537 -48.9782 242° Southwest  Level FlightAware Approximate
Thu 10:45:00 AM 49.2971 -49.1419 242° Southwest  Level FlightAware Approximate
Thu 10:46:00 AM 49.2402 -49.3052 242° Southwest  Level FlightAware Approximate
Thu 10:47:00 AM 49.1830 -49.4681 242° Southwest  Level FlightAware Approximate
Thu 10:48:00 AM 49.1257 -49.6307 242° Southwest  Level FlightAware Approximate
Thu 10:49:00 AM 49.0681 -49.7929 242° Southwest  Level FlightAware Approximate
Thu 10:50:00 AM 49.0103 -49.9547 241° Southwest  Level FlightAware Approximate
Thu 10:50:56 AM 48.9833 -49.9667 250° West 450 518 34,000  Level Gander Center
Thu 10:51:00 AM 48.9709 -50.1273 251° West  Level FlightAware Approximate
Thu 10:51:56 AM 48.9500 -50.1500 255° West 450 518 34,000  Level Gander Center
Thu 10:52:00 AM 48.9309 -50.3008 251° West  Level FlightAware Approximate
Thu 10:53:00 AM 48.8907 -50.4742 251° West  Level FlightAware Approximate
Thu 10:54:00 AM 48.8506 -50.6457 250° West  Level FlightAware Approximate
Thu 10:55:00 AM 48.8102 -50.8170 250° West  Level FlightAware Approximate
Thu 10:56:00 AM 48.7696 -50.9879 250° West  Level FlightAware Approximate
Thu 10:57:22 AM 48.7320 -51.1710 255° West 443 510 34,000  Level FlightAware ADS-B
Thu 10:58:07 AM 48.7010 -51.3040 251° West 441 507 34,000  Level FlightAware ADS-B
Thu 10:58:52 AM 48.6710 -51.4290 250° West 441 507 34,000  Level FlightAware ADS-B
Thu 10:59:32 AM 48.6420 -51.5500 250° West 442 509 34,000  Level FlightAware ADS-B
Thu 11:00:12 AM 48.6150 -51.6650 250° West 442 509 34,000  Level FlightAware ADS-B
Thu 11:00:57 AM 48.5830 -51.7970 250° West 442 509 34,000  Level FlightAware ADS-B
Thu 11:01:32 AM 48.5600 -51.8930 250° West 442 509 34,000  Level FlightAware ADS-B
Thu 11:02:22 AM 48.5230 -52.0430 250° West 442 509 34,000  Level FlightAware ADS-B
Thu 11:02:57 AM 48.5000 -52.1400 250° West 442 509 34,000  Level FlightAware ADS-B
Thu 11:03:42 AM 48.4680 -52.2680 249° West 442 509 34,000  Level FlightAware ADS-B
Thu 11:04:27 AM 48.4350 -52.4000 249° West 443 510 34,000  Level FlightAware ADS-B
Thu 11:05:07 AM 48.4070 -52.5150 250° West 443 510 34,000  Level FlightAware ADS-B
Thu 11:05:52 AM 48.3750 -52.6420 249° West 443 510 34,000  Level FlightAware ADS-B
Thu 11:06:32 AM 48.3450 -52.7630 250° West 442 509 34,000  Level FlightAware ADS-B
Thu 11:07:12 AM 48.3170 -52.8760 250° West 443 510 34,000  Level FlightAware ADS-B
Thu 11:07:57 AM 48.2870 -52.9960 249° West 443 510 34,000  Level FlightAware ADS-B
Thu 11:08:32 AM 48.2590 -53.1050 249° West 443 510 34,000  Level FlightAware ADS-B
Thu 11:09:22 AM 48.2220 -53.2500 249° West 442 509 34,000  Level FlightAware ADS-B
Thu 11:09:57 AM 48.1970 -53.3490 249° West 442 509 34,000  Level FlightAware ADS-B
Thu 11:10:42 AM 48.1640 -53.4780 249° West 442 509 34,000  Level FlightAware ADS-B
Thu 11:11:27 AM 48.1300 -53.6060 248° West 442 509 34,000  Level FlightAware ADS-B
Thu 11:12:07 AM 48.1010 -53.7190 249° West 442 509 34,000  Level FlightAware ADS-B
Thu 11:12:52 AM 48.0670 -53.8480 249° West 443 510 34,000  Level FlightAware ADS-B
Thu 11:13:32 AM 48.0380 -53.9610 249° West 443 510 34,000  Level FlightAware ADS-B
Thu 11:14:12 AM 48.0090 -54.0720 249° West 444 511 34,000  Level FlightAware ADS-B
Thu 11:14:57 AM 47.9740 -54.2030 248° West 441 507 34,000  Level FlightAware ADS-B
Thu 11:15:37 AM 47.9440 -54.3150 248° West 441 507 34,000  Level FlightAware ADS-B
Thu 11:16:17 AM 47.9140 -54.4280 248° West 441 507 34,000  Level FlightAware ADS-B
Thu 11:17:02 AM 47.8800 -54.5550 248° West 441 507 34,000  Level FlightAware ADS-B
Thu 11:17:42 AM 47.8500 -54.6670 248° West 441 507 34,000  Level FlightAware ADS-B
Thu 11:18:22 AM 47.8200 -54.7810 249° West 442 509 34,000  Level FlightAware ADS-B
Thu 11:19:07 AM 47.7850 -54.9070 248° West 442 509 34,000  Level FlightAware ADS-B
Thu 11:19:47 AM 47.7550 -55.0190 248° West 442 509 34,000  Level FlightAware ADS-B
Thu 11:20:32 AM 47.7200 -55.1460 248° West 442 509 34,000  Level FlightAware ADS-B
Thu 11:21:12 AM 47.6900 -55.2560 248° West 442 509 34,000  Level FlightAware ADS-B
Thu 11:21:52 AM 47.6590 -55.3700 248° West 442 509 34,000  Level FlightAware ADS-B
Thu 11:22:37 AM 47.6260 -55.4890 248° West 443 510 34,000  Level FlightAware ADS-B
Thu 11:23:17 AM 47.5940 -55.6030 247° West 445 512 34,000  Level FlightAware ADS-B
Thu 11:24:02 AM 47.5600 -55.7260 248° West 446 513 34,000  Level FlightAware ADS-B
Thu 11:24:32 AM 47.5370 -55.8080 247° West 446 513 34,000  Level FlightAware ADS-B
Thu 11:25:17 AM 47.5010 -55.9360 247° West 446 513 34,000  Level FlightAware ADS-B
Thu 11:25:57 AM 47.4690 -56.0490 247° West 34,000  Level FlightAware ADS-B
Thu 11:26:52 AM 47.4230 -56.2120 247° West 449 517 34,000  Level FlightAware ADS-B
Thu 11:27:27 AM 47.3980 -56.2980 247° West 449 517 34,000  Level FlightAware ADS-B
Thu 11:28:07 AM 47.3710 -56.3940 247° West 449 517 34,000  Level FlightAware ADS-B
Thu 11:28:57 AM 47.3360 -56.5140 247° West 449 517 34,000  Level FlightAware ADS-B
Thu 11:29:37 AM 47.2900 -56.6750 247° West 448 516 34,000  Level FlightAware ADS-B
Thu 11:30:17 AM 47.2590 -56.7840 247° West 448 516 34,000  Level FlightAware ADS-B
Thu 11:31:02 AM 47.2200 -56.9170 247° West 447 514 34,000  Level FlightAware ADS-B
Thu 11:31:32 AM 47.1990 -56.9900 247° West 446 513 34,000  Level FlightAware ADS-B
Thu 11:32:22 AM 47.1560 -57.1360 247° West 446 513 34,000  Level FlightAware ADS-B
Thu 11:33:22 AM 47.1060 -57.3040 246° West 446 513 34,000  Level FlightAware ADS-B
Thu 11:34:02 AM 47.0740 -57.4130 247° West 446 513 34,000  Level FlightAware ADS-B
Thu 11:34:37 AM 47.0460 -57.5040 246° West 446 513 34,000  Level FlightAware ADS-B
Thu 11:35:27 AM 47.0030 -57.6490 247° West 445 512 34,000  Level FlightAware ADS-B
Thu 11:36:07 AM 46.9700 -57.7610 247° West 445 512 34,000  Level FlightAware ADS-B
Thu 11:36:52 AM 46.9320 -57.8850 246° West 445 512 34,000  Level FlightAware ADS-B
Thu 11:37:32 AM 46.8990 -57.9940 246° West 445 512 34,000  Level FlightAware ADS-B
Thu 11:38:17 AM 46.8610 -58.1180 246° West 444 511 34,000  Level FlightAware ADS-B
Thu 11:38:57 AM 46.8280 -58.2270 246° West 444 511 34,000  Level FlightAware ADS-B
Thu 11:39:37 AM 46.7950 -58.3340 246° West 444 511 34,000  Level FlightAware ADS-B
Thu 11:40:22 AM 46.7560 -58.4610 246° West 444 511 34,000  Level FlightAware ADS-B
Thu 11:41:02 AM 46.7220 -58.5700 246° West 444 511 34,000  Level FlightAware ADS-B
Thu 11:41:42 AM 46.6880 -58.6780 245° Southwest 445 512 34,000  Level FlightAware ADS-B
Thu 11:42:27 AM 46.6510 -58.7980 246° West 446 513 34,000  Level FlightAware ADS-B
Thu 11:43:07 AM 46.6160 -58.9070 245° Southwest 446 513 34,000  Level FlightAware ADS-B
Thu 11:43:52 AM 46.5770 -59.0310 245° Southwest 446 513 34,000  Level FlightAware ADS-B
Thu 11:44:32 AM 46.5420 -59.1410 245° Southwest 446 513 34,000  Level FlightAware ADS-B
Thu 11:45:17 AM 46.5030 -59.2610 245° Southwest 445 512 34,000  Level FlightAware ADS-B
Thu 11:45:57 AM 46.4680 -59.3700 245° Southwest 445 512 34,000  Level FlightAware ADS-B
Thu 11:46:37 AM 46.4340 -59.4760 245° Southwest 445 512 34,000  Level FlightAware ADS-B
Thu 11:47:17 AM 46.3990 -59.5830 245° Southwest 444 511 34,000  Level FlightAware ADS-B
Thu 11:48:02 AM 46.3590 -59.7080 245° Southwest 444 511 34,000  Level FlightAware ADS-B
Thu 11:48:42 AM 46.3240 -59.8130 244° Southwest 443 510 34,000  Level FlightAware ADS-B
Thu 11:49:27 AM 46.2850 -59.9320 245° Southwest 444 511 34,000  Level FlightAware ADS-B
Thu 11:50:07 AM 46.2490 -60.0400 244° Southwest 443 510 34,000  Level FlightAware ADS-B
Thu 11:50:52 AM 46.2100 -60.1570 244° Southwest 442 509 34,000  Level FlightAware ADS-B
Thu 11:51:32 AM 46.1740 -60.2630 244° Southwest 440 506 34,000  Level FlightAware ADS-B
Thu 11:52:12 AM 46.1390 -60.3680 244° Southwest 439 505 34,000  Level FlightAware ADS-B
Thu 11:52:57 AM 46.0990 -60.4870 244° Southwest 438 504 34,000  Level FlightAware ADS-B
Thu 11:53:37 AM 46.0630 -60.5930 244° Southwest 437 503 34,000  Level FlightAware ADS-B
Thu 11:54:17 AM 46.0270 -60.6960 243° Southwest 439 505 34,000  Level FlightAware ADS-B
Thu 11:55:02 AM 45.9870 -60.8130 244° Southwest 439 505 34,000  Level FlightAware ADS-B
Thu 11:55:42 AM 45.9510 -60.9160 243° Southwest 440 506 34,000  Level FlightAware ADS-B
Thu 11:56:27 AM 45.9090 -61.0370 244° Southwest 440 506 34,000  Level FlightAware ADS-B
Thu 11:57:07 AM 45.8740 -61.1400 244° Southwest 442 509 34,000  Level FlightAware ADS-B
Thu 11:57:52 AM 45.8330 -61.2550 243° Southwest 442 509 34,000  Level FlightAware ADS-B
Thu 11:58:32 AM 45.7960 -61.3600 243° Southwest 442 509 34,000  Level FlightAware ADS-B
Thu 11:59:27 AM 45.7460 -61.4950 242° Southwest 442 509 34,000  Level FlightAware ADS-B
Thu 12:00:07 PM 45.7140 -61.5830 243° Southwest 442 509 34,000  Level FlightAware ADS-B
Thu 12:00:47 PM 45.6810 -61.6710 242° Southwest 442 509 34,000  Level FlightAware ADS-B
Thu 12:01:27 PM 45.6480 -61.7590 242° Southwest 442 509 34,000  Level FlightAware ADS-B
Thu 12:02:17 PM 45.6080 -61.8680 242° Southwest 442 509 34,000  Level FlightAware ADS-B
Thu 12:02:57 PM 45.5750 -61.9560 242° Southwest 442 509 34,000  Level FlightAware ADS-B
Thu 12:03:37 PM 45.5420 -62.0440 242° Southwest 442 509 34,000  Level FlightAware ADS-B
Thu 12:04:17 PM 45.5100 -62.1310 242° Southwest 442 509 34,000  Level FlightAware ADS-B
Thu 12:04:57 PM 45.4770 -62.2190 242° Southwest 442 509 34,000  Level FlightAware ADS-B
Thu 12:05:47 PM 45.4360 -62.3280 242° Southwest 442 509 34,000  Level FlightAware ADS-B
Thu 12:06:27 PM 45.4040 -62.4160 243° Southwest 442 509 34,000  Level FlightAware ADS-B
Thu 12:07:07 PM 45.3710 -62.5030 242° Southwest 442 509 34,000  Level FlightAware ADS-B
Thu 12:07:47 PM 45.3380 -62.5910 242° Southwest 442 509 34,000  Level FlightAware ADS-B
Thu 12:08:27 PM 45.3060 -62.6780 242° Southwest 442 509 34,000  Level FlightAware ADS-B
Thu 12:10:52 PM 45.1030 -63.2350 243° Southwest 34,000  Level FlightAware ADS-B
Thu 12:11:32 PM 45.0610 -63.3440 241° Southwest 433 498 34,000  Level FlightAware ADS-B
Thu 12:12:17 PM 45.0180 -63.4540 241° Southwest 431 496 34,000  Level FlightAware ADS-B
Thu 12:12:57 PM 44.9790 -63.5550 241° Southwest 431 496 34,000  Level FlightAware ADS-B
Thu 12:13:42 PM 44.9360 -63.6640 241° Southwest 431 496 34,000  Level FlightAware ADS-B
Thu 12:14:22 PM 44.8980 -63.7610 241° Southwest 431 496 34,000  Level FlightAware ADS-B
Thu 12:15:07 PM 44.8540 -63.8730 241° Southwest 432 497 34,000  Level FlightAware ADS-B
Thu 12:15:47 PM 44.8160 -63.9700 241° Southwest 432 497 34,000  Level FlightAware ADS-B
Thu 12:16:27 PM 44.7810 -64.0590 241° Southwest 433 498 34,000  Level FlightAware ADS-B
Thu 12:17:12 PM 44.7330 -64.1790 241° Southwest 434 499 34,000  Level FlightAware ADS-B
Thu 12:17:52 PM 44.6940 -64.2750 240° Southwest 434 499 34,000  Level FlightAware ADS-B
Thu 12:18:37 PM 44.6490 -64.3900 241° Southwest 435 501 34,000  Level FlightAware ADS-B
Thu 12:19:17 PM 44.6100 -64.4850 240° Southwest 436 502 34,000  Level FlightAware ADS-B
Thu 12:19:57 PM 44.5700 -64.5850 241° Southwest 437 503 34,000  Level FlightAware ADS-B
Thu 12:20:42 PM 44.5250 -64.6960 240° Southwest 437 503 34,000  Level FlightAware ADS-B
Thu 12:21:22 PM 44.4850 -64.7940 240° Southwest 437 503 34,000  Level FlightAware ADS-B
Thu 12:22:02 PM 44.4450 -64.8910 240° Southwest 437 503 34,000  Level FlightAware ADS-B
Thu 12:22:47 PM 44.4000 -65.0010 240° Southwest 438 504 34,000  Level FlightAware ADS-B
Thu 12:23:32 PM 44.3550 -65.1110 240° Southwest 439 505 34,000  Level FlightAware ADS-B
Thu 12:24:12 PM 44.3120 -65.2150 240° Southwest 439 505 34,000  Level FlightAware ADS-B
Thu 12:24:57 PM 44.2670 -65.3250 240° Southwest 439 505 34,000  Level FlightAware ADS-B
Thu 12:25:32 PM 44.2330 -65.4070 240° Southwest 440 506 34,000  Level FlightAware ADS-B
Thu 12:26:17 PM 44.1860 -65.5210 240° Southwest 437 503 34,000  Level FlightAware ADS-B
Thu 12:27:17 PM 44.1240 -65.6690 240° Southwest 438 504 34,000  Level FlightAware ADS-B
Thu 12:27:57 PM 44.0820 -65.7670 239° Southwest 443 510 34,000  Level FlightAware ADS-B
Thu 12:28:37 PM 44.0410 -65.8660 240° Southwest 443 510 34,000  Level FlightAware ADS-B
Thu 12:29:12 PM 44.0050 -65.9520 240° Southwest 445 512 34,000  Level FlightAware ADS-B
Thu 12:30:02 PM 43.9530 -66.0750 240° Southwest 446 513 34,000  Level FlightAware ADS-B
Thu 12:31:02 PM 43.8910 -66.2210 240° Southwest 445 512 34,000  Level FlightAware ADS-B
Thu 12:31:37 PM 43.8530 -66.3090 239° Southwest 444 511 34,000  Level FlightAware ADS-B
Thu 12:32:22 PM 43.8070 -66.4170 239° Southwest 442 509 34,000  Level FlightAware ADS-B
Thu 12:33:22 PM 43.7440 -66.5640 239° Southwest 442 509 34,000  Level FlightAware ADS-B
Thu 12:34:02 PM 43.7020 -66.6620 239° Southwest 442 509 34,000  Level FlightAware ADS-B
Thu 12:34:42 PM 43.6610 -66.7580 239° Southwest 442 509 34,000  Level FlightAware ADS-B
Thu 12:35:42 PM 43.5980 -66.9030 239° Southwest 444 511 34,000  Level FlightAware ADS-B
Thu 12:36:22 PM 43.5580 -67.0030 241° Southwest 443 510 34,000  Level FlightAware ADS-B
Thu 12:37:02 PM 43.5280 -67.1080 249° West 448 516 34,000  Level FlightAware ADS-B
Thu 12:37:37 PM 43.5010 -67.2020 248° West 450 518 34,000  Level FlightAware ADS-B
Thu 12:38:27 PM 43.4640 -67.3360 249° West 453 521 34,000  Level FlightAware ADS-B
Thu 12:40:17 PM 43.3820 -67.6220 249° West 452 520 34,000  Level FlightAware ADS-B
Thu 12:41:27 PM 43.3300 -67.8050 249° West 454 522 34,000  Level FlightAware ADS-B
Thu 12:42:22 PM 43.2880 -67.9540 249° West 454 522 34,000  Level FlightAware ADS-B
Thu 12:45:27 PM 43.1450 -68.4420 248° West 34,000  Level FlightAware ADS-B
Thu 12:46:02 PM 43.1210 -68.5250 248° West 439 505 34,000  Level FlightAware ADS-B
Thu 12:46:47 PM 43.0860 -68.6430 248° West 438 504 34,000  Level FlightAware ADS-B
Thu 12:47:32 PM 43.0560 -68.7450 248° West 438 504 34,000  Level FlightAware ADS-B
Thu 12:48:07 PM 43.0230 -68.8570 248° West 34,000  Level FlightAware ADS-B
Thu 12:48:57 PM 42.9850 -68.9860 248° West 437 503 34,000  Level FlightAware ADS-B
Thu 12:49:37 PM 42.9540 -69.0870 247° West 437 503 34,000  Level FlightAware ADS-B
Thu 12:50:17 PM 42.9240 -69.1890 248° West 438 504 34,000  Level FlightAware ADS-B
Thu 12:52:47 PM 42.8100 -69.5650 248° West 436 502 34,000  Level FlightAware ADS-B
Thu 12:55:12 PM 42.6970 -69.9340 247° West 436 502 34,000 -703 Level FlightAware ADS-B
Thu 12:57:37 PM 42.5830 -70.3000 247° West 422 486 30,600 -1,589 Descending FlightAware ADS-B
Thu 12:58:17 PM 42.5520 -70.3980 247° West 422 486 29,100 -1,875 Descending FlightAware ADS-B
Thu 12:58:57 PM 42.5230 -70.4930 248° West 415 478 28,100 -825 Descending FlightAware ADS-B
Thu 12:59:37 PM 42.4910 -70.5900 246° West 429 494 28,000 -212 Descending FlightAware ADS-B
Thu 01:00:22 PM 42.4560 -70.7030 247° West 431 496 27,800 -800 Descending FlightAware ADS-B
Thu 01:01:07 PM 42.4190 -70.8160 246° West 425 489 26,800 -1,271 Descending FlightAware ADS-B
Thu 01:01:47 PM 42.3890 -70.9120 247° West 420 483 26,000 -1,200 Descending FlightAware ADS-B
Thu 01:02:32 PM 42.3620 -71.0220 252° West 425 489 25,100 -1,200 Descending FlightAware ADS-B
Thu 01:03:12 PM 42.3500 -71.1300 261° West 421 484 24,300 -1,275 Descending FlightAware ADS-B
Thu 01:03:52 PM 42.3400 -71.2320 262° West 418 481 23,400 -1,200 Descending FlightAware ADS-B
Thu 01:04:37 PM 42.3290 -71.3440 262° West 413 475 22,600 -1,129 Descending FlightAware ADS-B
Thu 01:05:17 PM 42.3160 -71.4630 262° West 407 468 21,800 -1,200 Descending FlightAware ADS-B
Thu 01:05:57 PM 42.3060 -71.5610 262° West 394 453 21,000 -1,129 Descending FlightAware ADS-B
Thu 01:06:42 PM 42.2940 -71.6660 261° West 394 453 20,200 -1,059 Descending FlightAware ADS-B
Thu 01:07:22 PM 42.2840 -71.7660 262° West 405 466 19,500 -1,059 Descending FlightAware ADS-B
Thu 01:08:07 PM 42.2710 -71.8770 261° West 397 457 18,700 -1,059 Descending FlightAware ADS-B
Thu 01:08:47 PM 42.2610 -71.9710 262° West 376 433 18,000 -975 Descending FlightAware ADS-B
Thu 01:09:27 PM 42.2510 -72.0580 261° West 374 430 17,400 -988 Descending FlightAware ADS-B
Thu 01:10:12 PM 42.2380 -72.1720 261° West 371 427 16,600 -988 Descending FlightAware ADS-B
Thu 01:10:52 PM 42.2280 -72.2600 261° West 369 425 16,000 -424 Descending FlightAware ADS-B
Thu 01:11:37 PM 42.2170 -72.3620 262° West 371 427 16,000  Level FlightAware ADS-B
Thu 01:12:07 PM 42.2090 -72.4280 261° West 366 421 16,000  Level FlightAware ADS-B
Thu 01:13:12 PM 42.1920 -72.5770 261° West 366 421 16,000  Level FlightAware ADS-B
Thu 01:13:57 PM 42.1900 -72.6790 269° West 370 426 16,000  Level FlightAware ADS-B
Thu 01:14:37 PM 42.1930 -72.7700 273° West 370 426 16,000  Level FlightAware ADS-B
Thu 01:15:12 PM 42.1950 -72.8480 272° West 370 426 16,000  Level FlightAware ADS-B
Thu 01:15:57 PM 42.1970 -72.9480 272° West 374 430 16,000  Level FlightAware ADS-B
Thu 01:16:42 PM 42.1980 -73.0460 271° West 374 430 16,000  Level FlightAware ADS-B
Thu 01:17:22 PM 42.1990 -73.1250 271° West 374 430 16,000  Level FlightAware ADS-B
Thu 01:18:02 PM 42.2000 -73.2040 271° West 374 430 16,000  Level FlightAware ADS-B
Thu 01:18:42 PM 42.2010 -73.2840 271° West 374 430 16,000  Level FlightAware ADS-B
Thu 01:19:32 PM 42.2030 -73.3830 272° West 374 430 16,000  Level FlightAware ADS-B
Thu 01:20:02 PM 42.1930 -73.5160 264° West 357 411 16,000  Level FlightAware ADS-B
Thu 01:20:37 PM 42.1780 -73.5940 255° West 359 413 16,000  Level FlightAware ADS-B
Thu 01:21:22 PM 42.1590 -73.6940 256° West 359 413 16,000  Level FlightAware ADS-B
Thu 01:22:07 PM 42.1400 -73.7820 254° West 359 413 16,000  Level FlightAware ADS-B
Thu 01:22:42 PM 42.1190 -73.8550 249° West 354 407 16,000  Level FlightAware ADS-B
Thu 01:23:22 PM 42.0970 -73.9240 247° West 354 407 16,000  Level FlightAware ADS-B
Thu 01:24:12 PM 42.0700 -74.0100 247° West 354 407 16,000  Level FlightAware ADS-B
Thu 01:24:52 PM 42.0480 -74.0790 247° West 354 407 16,000  Level FlightAware ADS-B
Thu 01:25:32 PM 42.0260 -74.1480 247° West 354 407 16,000  Level FlightAware ADS-B
Thu 01:26:12 PM 42.0050 -74.2170 248° West 354 407 16,000 -1,329 Level FlightAware ADS-B
Thu 01:27:52 PM 41.7240 -74.2560 186° South 345 397 12,900 -1,738 Descending FlightAware ADS-B
Thu 01:28:37 PM 41.6520 -74.2870 198° South 345 397 11,800 -1,137 Descending FlightAware ADS-B
Thu 01:29:27 PM 41.5790 -74.3170 197° South 343 395 11,100 -420 Descending FlightAware ADS-B
Thu 01:30:17 PM 41.5150 -74.3440 198° South 343 395 11,100  Level FlightAware ADS-B
Thu 01:30:57 PM 41.4630 -74.3650 197° South 343 395 11,100 -879 Level FlightAware ADS-B
Thu 01:34:57 PM 41.1590 -74.4950 198° South 277 319 7,000 -978 Descending FlightAware ADS-B
Thu 01:35:33 PM 41.1118 -74.5146 197° South 277 319 6,600 -692 Descending FlightAware ADS-B
Thu 01:35:49 PM 41.0931 -74.5224 197° South 276 318 6,400 -915 Descending FlightAware ADS-B
Thu 01:36:32 PM 41.0400 -74.5330 189° South 276 318 5,700 -986 Descending FlightAware ADS-B
Thu 01:37:02 PM 41.0050 -74.5370 185° South 274 315 5,200 -700 Descending FlightAware ADS-B
Thu 01:37:32 PM 40.9650 -74.5410 184° South 274 315 5,000 -231 Descending FlightAware ADS-B
Thu 01:37:54 PM 40.9345 -74.5440 184° South 276 318 5,000  Level FlightAware ADS-B
Thu 01:38:37 PM 40.8810 -74.5490 184° South 265 305 5,000  Level FlightAware ADS-B
Thu 01:38:55 PM 40.8594 -74.5513 185° South 249 287 5,000  Level FlightAware ADS-B
Thu 01:38:56 PM 40.8581 -74.5515 187° South 275 316 5,000  Level FlightAware ADS-B
Thu 01:39:11 PM 40.8408 -74.5529 184° South 236 272 5,000  Level FlightAware ADS-B
Thu 01:39:13 PM 40.8386 -74.5532 186° South 234 269 5,000  Level FlightAware ADS-B
Thu 01:39:35 PM 40.8158 -74.5551 184° South 232 267 5,000  Level FlightAware ADS-B
Thu 01:39:41 PM 40.8092 -74.5557 184° South 230 265 5,000  Level FlightAware ADS-B
Thu 01:39:59 PM 40.7899 -74.5574 184° South 231 266 5,000  Level FlightAware ADS-B
Thu 01:40:16 PM 40.7720 -74.5587 183° South 233 268 5,000  Level FlightAware ADS-B
Thu 01:40:37 PM 40.7495 -74.5607 184° South 232 267 5,000  Level FlightAware ADS-B
Thu 01:40:53 PM 40.7324 -74.5618 183° South 231 266 5,000  Level FlightAware ADS-B
Thu 01:41:08 PM 40.7162 -74.5632 184° South 231 266 5,000  Level FlightAware ADS-B
Thu 01:41:25 PM 40.6987 -74.5644 183° South 212 244 5,000  Level FlightAware ADS-B
Thu 01:41:43 PM 40.6812 -74.5658 183° South 208 239 5,000  Level FlightAware ADS-B
Thu 01:41:59 PM 40.6660 -74.5670 183° South 211 243 5,000  Level FlightAware ADS-B
Thu 01:42:37 PM 40.6330 -74.5690 183° South 211 243 5,000  Level FlightAware ADS-B
Thu 01:42:45 PM 40.6209 -74.5701 184° South 209 241 5,000  Level FlightAware ADS-B
Thu 01:43:08 PM 40.5989 -74.5714 183° South 210 242 5,000  Level FlightAware ADS-B
Thu 01:43:26 PM 40.5814 -74.5728 183° South 213 245 5,000  Level FlightAware ADS-B
Thu 01:43:44 PM 40.5638 -74.5743 184° South 200 230 5,000  Level FlightAware ADS-B
Thu 01:44:02 PM 40.5481 -74.5752 182° South 198 228 5,000  Level FlightAware ADS-B
Thu 01:44:09 PM 40.5414 -74.5756 183° South 197 227 5,000  Level FlightAware ADS-B
Thu 01:44:24 PM 40.5274 -74.5764 182° South 198 228 5,000  Level FlightAware ADS-B
Thu 01:44:39 PM 40.5135 -74.5773 183° South 199 229 5,000  Level FlightAware ADS-B
Thu 01:44:55 PM 40.4990 -74.5783 183° South 202 232 5,000  Level FlightAware ADS-B
Thu 01:45:07 PM 40.4879 -74.5791 183° South 200 230 5,000  Level FlightAware ADS-B
Thu 01:45:20 PM 40.4757 -74.5798 182° South 200 230 5,000  Level FlightAware ADS-B
Thu 01:45:24 PM 40.4719 -74.5795 177° South 201 231 5,000  Level FlightAware ADS-B
Thu 01:45:27 PM 40.4690 -74.5788 170° South 202 232 5,000 -857 Level FlightAware ADS-B
Thu 01:45:31 PM 40.4663 -74.5775 160° South 204 235 4,900 -1,333 Descending FlightAware ADS-B
Thu 01:45:36 PM 40.4619 -74.5745 153° Southeast 205 236 4,800 -500 Descending FlightAware ADS-B
Thu 01:45:43 PM 40.4561 -74.5694 146° Southeast 203 234 4,800 -818 Level FlightAware ADS-B
Thu 01:45:58 PM 40.4451 -74.5583 142° Southeast 204 235 4,500 -1,200 Descending FlightAware ADS-B
Thu 01:46:13 PM 40.4331 -74.5471 145° Southeast 206 237 4,200 -1,154 Descending FlightAware ADS-B
Thu 01:46:24 PM 40.4246 -74.5390 144° Southeast 206 237 4,000 -632 Descending FlightAware ADS-B
Thu 01:46:32 PM 40.4188 -74.5338 146° Southeast 202 232 4,000  Level FlightAware ADS-B
Thu 01:46:39 PM 40.4140 -74.5276 135° Southeast 201 231 4,000  Level FlightAware ADS-B
Thu 01:46:50 PM 40.4079 -74.5174 128° Southeast 202 232 4,000  Level FlightAware ADS-B
Thu 01:47:07 PM 40.3982 -74.5000 126° Southeast 204 235 4,000  Level FlightAware ADS-B
Thu 01:47:22 PM 40.3898 -74.4846 126° Southeast 206 237 4,000  Level FlightAware ADS-B
Thu 01:47:32 PM 40.3844 -74.4749 126° Southeast 204 235 4,000  Level FlightAware ADS-B
Thu 01:47:48 PM 40.3759 -74.4596 126° Southeast 204 235 4,000  Level FlightAware ADS-B
Thu 01:48:04 PM 40.3668 -74.4429 126° Southeast 204 235 4,000 -222 Level FlightAware ADS-B
Thu 01:48:15 PM 40.3616 -74.4306 119° Southeast 207 238 3,900 -720 Descending FlightAware ADS-B
Thu 01:48:29 PM 40.3613 -74.4143 91° East 205 236 3,700 -1,059 Descending FlightAware ADS-B
Thu 01:48:32 PM 40.3623 -74.4098 74° East 201 231 3,600 -792 Descending FlightAware ADS-B
Thu 01:49:22 PM 40.3840 -74.3610 60° Northeast 194 223 3,000 -632 Descending FlightAware ADS-B
Thu 01:49:29 PM 40.3898 -74.3533 45° Northeast 207 238 3,000  Level FlightAware ADS-B
Thu 01:49:40 PM 40.3973 -74.3448 41° Northeast 188 216 3,000  Level FlightAware ADS-B
Thu 01:49:46 PM 40.4018 -74.3408 34° Northeast 186 214 3,000  Level FlightAware ADS-B
Thu 01:49:58 PM 40.4105 -74.3341 30° Northeast 185 213 3,000  Level FlightAware ADS-B
Thu 01:50:14 PM 40.4228 -74.3265 25° Northeast 181 208 3,000  Level FlightAware ADS-B
Thu 01:50:29 PM 40.4346 -74.3203 22° Northeast 182 209 3,000  Level FlightAware ADS-B
Thu 01:50:51 PM 40.4510 -74.3105 24° Northeast 179 206 3,000  Level FlightAware ADS-B
Thu 01:51:34 PM 40.4824 -74.2910 25° Northeast 178 205 3,000  Level FlightAware ADS-B
Thu 01:51:56 PM 40.4990 -74.2800 27° Northeast 179 206 3,000  Level FlightAware ADS-B
Thu 01:52:12 PM 40.5109 -74.2728 25° Northeast 179 206 3,000  Level FlightAware ADS-B
Thu 01:52:30 PM 40.5247 -74.2645 25° Northeast 175 201 3,000  Level FlightAware ADS-B
Thu 01:52:46 PM 40.5366 -74.2570 26° Northeast 179 206 3,000  Level FlightAware ADS-B
Thu 01:53:01 PM 40.5479 -74.2500 25° Northeast 177 204 3,000 -194 Level FlightAware ADS-B
Thu 01:53:17 PM 40.5593 -74.2427 26° Northeast 182 209 2,900 -667 Descending FlightAware ADS-B
Thu 01:53:28 PM 40.5682 -74.2372 25° Northeast 180 207 2,700 -818 Descending FlightAware ADS-B
Thu 01:53:39 PM 40.5759 -74.2325 25° Northeast 178 205 2,600 -923 Descending FlightAware ADS-B
Thu 01:53:54 PM 40.5876 -74.2251 26° Northeast 177 204 2,300 -968 Descending FlightAware ADS-B
Thu 01:54:10 PM 40.5990 -74.2182 25° Northeast 176 203 2,100 -968 Descending FlightAware ADS-B
Thu 01:54:25 PM 40.6103 -74.2110 26° Northeast 174 200 1,800 -973 Descending FlightAware ADS-B
Thu 01:54:47 PM 40.6257 -74.2014 25° Northeast 167 192 1,500 -878 Descending FlightAware ADS-B
Thu 01:55:06 PM 40.6382 -74.1937 25° Northeast 151 174 1,200 -857 Descending FlightAware ADS-B
Thu 01:55:22 PM 40.6484 -74.1875 25° Northeast 153 176 1,000 -889 Descending FlightAware ADS-B
Thu 01:55:33 PM 40.6551 -74.1832 26° Northeast 148 170 800 -818 Descending FlightAware ADS-B
Thu 01:55:44 PM 40.6626 -74.1788 24° Northeast 151 174 700 -828 Descending FlightAware ADS-B
Thu 01:56:02 PM 40.6732 -74.1721 26° Northeast 148 170 400 -909 Descending FlightAware ADS-B
Thu 01:56:17 PM 40.6830 -74.1659 26° Northeast 153 176 200 -800 Descending FlightAware ADS-B

Login

Don't have an account? Register now (free) for customized features, flight alerts, and more!